LIRQ/FLR METAR and TAF weather

Enter ICAO airport designator
Station Type Date Time Source
LIRQ METAR 2020/06/06 19:50 UTC NOAA

LIRQ 061950Z 21006KT 9999 FEW027 BKN045 20/15 Q1009


Station Type Date Time Source
LIRQ Decoded METAR 2020/06/06 19:50 UTC NOAA

Firenze / Peretola, Italy (LIRQ) 43-48N 011-12E 38M
Jun 06, 2020 - 03:50 PM EDT / 2020.06.06 1950 UTC
Wind: from the SSW (210 degrees) at 7 MPH (6 KT):0
Visibility: greater than 7 mile(s):0
Sky conditions: mostly cloudy
Temperature: 68 F (20 C)
Dew Point: 59 F (15 C)
Relative Humidity: 72%
Pressure (altimeter): 29.80 in. Hg (1009 hPa)
ob: LIRQ 061950Z 21006KT 9999 FEW027 BKN045 20/15 Q1009
cycle: 20

Station Type Date Time Source
LIRQ TAF 2020/06/06 18:21 UTC NOAA

TAF LIRQ 061700Z 0618/0718 VRB05KT 9999 SCT030
BECMG 0709/0711 21014KT

Example: see airport list